createdAt,value
2018-07-22T00:01:39.556Z,16.13
2018-07-22T00:04:07.171Z,17.43
2018-07-22T00:06:35.445Z,10.87
2018-07-22T00:09:05.297Z,11.50
2018-07-22T00:11:32.897Z,12.23
2018-07-22T00:14:00.575Z,11.43
2018-07-22T00:16:28.185Z,11.10
2018-07-22T00:18:55.778Z,12.80
2018-07-22T00:21:23.457Z,15.77
2018-07-22T00:23:51.122Z,10.50
2018-07-22T00:26:18.796Z,10.97
2018-07-22T00:28:46.394Z,11.47
2018-07-22T00:31:14.021Z,10.70
2018-07-22T00:33:42.269Z,10.70
2018-07-22T00:36:09.897Z,10.57
2018-07-22T00:38:37.485Z,10.30
2018-07-22T00:41:05.236Z,10.40
2018-07-22T00:43:37.209Z,11.63
2018-07-22T00:46:04.840Z,8.40
2018-07-22T00:48:32.445Z,9.03
2018-07-22T00:51:00.092Z,9.83
2018-07-22T00:53:27.721Z,9.20
2018-07-22T00:55:55.313Z,8.73
2018-07-22T00:58:23.101Z,7.80
2018-07-22T01:00:50.731Z,8.87
2018-07-22T01:03:18.396Z,16.03
2018-07-22T01:05:45.989Z,7.50
2018-07-22T01:08:14.284Z,7.80
2018-07-22T01:10:41.876Z,9.10
2018-07-22T01:13:10.535Z,9.27
2018-07-22T01:15:38.696Z,8.73
2018-07-22T01:18:06.372Z,9.20
2018-07-22T01:20:33.990Z,9.40
2018-07-22T01:23:01.647Z,10.37
2018-07-22T01:25:29.217Z,11.60
2018-07-22T01:27:56.861Z,13.63
2018-07-22T01:30:24.500Z,12.13
2018-07-22T01:32:52.111Z,11.20
2018-07-22T01:35:19.713Z,15.77
2018-07-22T01:37:47.328Z,12.77
2018-07-22T01:40:14.960Z,12.47
2018-07-22T01:42:42.561Z,16.93
2018-07-22T01:45:10.210Z,17.93
2018-07-22T01:47:37.865Z,13.33
2018-07-22T01:50:05.636Z,14.83
2018-07-22T01:52:33.249Z,13.10
2018-07-22T01:55:00.884Z,14.00
2018-07-22T01:57:28.672Z,18.47
2018-07-22T01:59:56.301Z,15.10
2018-07-22T02:02:23.937Z,16.00
2018-07-22T02:04:51.567Z,16.67
2018-07-22T02:07:19.188Z,17.63
2018-07-22T02:09:46.789Z,16.67
2018-07-22T02:12:14.452Z,17.87
2018-07-22T02:14:42.021Z,16.87
2018-07-22T02:17:10.657Z,20.33
2018-07-22T02:19:38.352Z,18.10
2018-07-22T02:22:06.065Z,20.73
2018-07-22T02:24:33.680Z,17.77
2018-07-22T02:27:01.274Z,19.27
2018-07-22T02:29:29.485Z,18.40
2018-07-22T02:31:57.589Z,23.30
2018-07-22T02:34:25.156Z,21.83
2018-07-22T02:36:52.689Z,21.33
2018-07-22T02:39:20.297Z,20.37
2018-07-22T02:41:47.903Z,18.90
2018-07-22T02:44:15.465Z,19.93
2018-07-22T02:46:43.103Z,22.80
2018-07-22T02:49:10.667Z,22.20
2018-07-22T02:51:38.391Z,21.77
2018-07-22T02:54:05.950Z,17.70
2018-07-22T02:56:33.537Z,19.47
2018-07-22T02:59:04.119Z,20.13
2018-07-22T03:01:33.205Z,18.70
2018-07-22T03:04:01.033Z,19.27
2018-07-22T03:06:28.630Z,21.47
2018-07-22T03:08:56.216Z,18.50
2018-07-22T03:11:24.932Z,21.87
2018-07-22T03:13:52.516Z,18.77
2018-07-22T03:16:20.722Z,20.07
2018-07-22T03:18:48.204Z,20.00
2018-07-22T03:21:15.821Z,18.67
2018-07-22T03:23:43.441Z,20.13
2018-07-22T03:26:11.058Z,18.20
2018-07-22T03:28:38.677Z,18.73
2018-07-22T03:31:06.336Z,17.60
2018-07-22T03:33:34.953Z,18.80
2018-07-22T03:36:02.537Z,17.20
2018-07-22T03:38:30.121Z,18.53
2018-07-22T03:40:57.741Z,20.60
2018-07-22T03:43:25.359Z,20.37
2018-07-22T03:45:52.948Z,18.87
2018-07-22T03:48:21.113Z,18.90
2018-07-22T03:50:48.693Z,24.20
2018-07-22T03:53:16.289Z,19.83
2018-07-22T03:55:43.881Z,18.10
2018-07-22T03:58:12.594Z,19.27
2018-07-22T04:00:40.193Z,21.73
2018-07-22T04:03:07.785Z,21.20
2018-07-22T04:05:35.469Z,23.50
2018-07-22T04:08:03.106Z,19.03
2018-07-22T04:10:30.789Z,20.20
2018-07-22T04:12:58.448Z,24.00
2018-07-22T04:15:26.117Z,21.23
2018-07-22T04:17:54.729Z,20.30
2018-07-22T04:20:22.328Z,23.93
2018-07-22T04:22:49.924Z,25.83
2018-07-22T04:25:17.512Z,23.20
2018-07-22T04:27:45.098Z,22.03
2018-07-22T04:30:12.712Z,25.27
2018-07-22T04:32:40.280Z,26.23
2018-07-22T04:35:07.873Z,21.80
2018-07-22T04:37:35.351Z,22.60
2018-07-22T04:40:03.148Z,23.43
2018-07-22T04:42:30.733Z,21.67
2018-07-22T04:44:58.344Z,26.13
2018-07-22T04:47:25.929Z,22.30
2018-07-22T04:49:54.529Z,24.90
2018-07-22T04:52:22.133Z,23.00
2018-07-22T04:54:49.755Z,19.40
2018-07-22T04:57:17.361Z,16.10
2018-07-22T04:59:44.957Z,15.60
2018-07-22T05:02:12.542Z,16.17
2018-07-22T05:04:40.136Z,15.47
2018-07-22T05:07:07.711Z,16.13
2018-07-22T05:09:35.960Z,13.17
2018-07-22T05:12:04.617Z,16.73
2018-07-22T05:14:32.213Z,14.13
2018-07-22T05:16:59.785Z,14.90
2018-07-22T05:19:27.397Z,9.67
2018-07-22T05:21:54.988Z,11.30
2018-07-22T05:24:22.589Z,9.47
2018-07-22T05:26:50.157Z,10.00
2018-07-22T05:29:17.753Z,10.70
2018-07-22T05:31:45.333Z,11.17
2018-07-22T05:34:12.936Z,11.00
2018-07-22T05:36:40.500Z,11.57
2018-07-22T05:39:10.112Z,15.37
2018-07-22T05:41:37.724Z,13.30
2018-07-22T05:44:05.510Z,17.97
2018-07-22T05:46:33.097Z,16.87
2018-07-22T05:49:00.669Z,14.80
2018-07-22T05:51:28.328Z,17.57
2018-07-22T05:53:55.948Z,18.73
2018-07-22T05:56:23.533Z,19.73
2018-07-22T05:58:51.189Z,13.10
2018-07-22T06:01:18.756Z,17.90
2018-07-22T06:03:46.374Z,12.43
2018-07-22T06:06:14.044Z,13.10
2018-07-22T06:08:41.640Z,11.50
2018-07-22T06:11:09.277Z,12.97
2018-07-22T06:13:37.375Z,14.47
2018-07-22T06:16:05.009Z,11.57
2018-07-22T06:18:32.600Z,11.20
2018-07-22T06:21:00.262Z,13.57
2018-07-22T06:23:27.870Z,11.63
2018-07-22T06:25:55.519Z,10.90
2018-07-22T06:28:23.124Z,10.83
2018-07-22T06:30:50.713Z,11.47
2018-07-22T06:33:18.289Z,11.70
2018-07-22T06:35:46.137Z,11.40
2018-07-22T06:38:13.753Z,11.90
2018-07-22T06:40:41.379Z,9.57
2018-07-22T06:43:09.218Z,10.20
2018-07-22T06:45:36.805Z,8.80
2018-07-22T06:48:04.449Z,7.77
2018-07-22T06:50:32.053Z,8.60
2018-07-22T06:52:59.648Z,9.80
2018-07-22T06:55:27.234Z,6.53
2018-07-22T06:57:54.825Z,7.07
2018-07-22T07:00:22.389Z,7.27
2018-07-22T07:02:49.964Z,7.90
2018-07-22T07:05:17.597Z,8.30
2018-07-22T07:07:46.330Z,8.37
2018-07-22T07:10:13.920Z,8.13
2018-07-22T07:12:41.512Z,8.43
2018-07-22T07:15:09.097Z,9.20
2018-07-22T07:17:36.693Z,8.97
2018-07-22T07:20:04.617Z,10.67
2018-07-22T07:22:32.243Z,10.10
2018-07-22T07:24:59.816Z,9.23
2018-07-22T07:27:27.412Z,9.53
2018-07-22T07:29:54.997Z,11.47
2018-07-22T07:32:22.593Z,14.03
2018-07-22T07:34:50.190Z,14.40
2018-07-22T07:37:17.804Z,15.10
2018-07-22T07:39:46.401Z,15.73
2018-07-22T07:42:14.045Z,15.90
2018-07-22T07:44:41.634Z,14.70
2018-07-22T07:47:09.597Z,16.23
2018-07-22T07:49:37.176Z,20.43
2018-07-22T07:52:04.808Z,15.77
2018-07-22T07:54:32.416Z,14.30
2018-07-22T07:57:00.034Z,15.80
2018-07-22T07:59:27.636Z,15.83
2018-07-22T08:01:55.233Z,17.13
2018-07-22T08:04:22.817Z,15.13
2018-07-22T08:06:50.432Z,19.70
2018-07-22T08:09:18.008Z,18.70
2018-07-22T08:11:45.603Z,20.60
2018-07-22T08:14:13.278Z,19.30
2018-07-22T08:16:40.858Z,15.40
2018-07-22T08:19:08.509Z,16.73
2018-07-22T08:21:36.090Z,14.90
2018-07-22T08:24:03.755Z,16.77
2018-07-22T08:26:31.334Z,16.67
2018-07-22T08:29:31.876Z,17.20
2018-07-22T08:32:01.165Z,14.23
2018-07-22T08:34:28.828Z,14.40
2018-07-22T08:36:56.445Z,15.20
2018-07-22T08:39:25.277Z,15.40
2018-07-22T08:41:53.677Z,17.03
2018-07-22T08:44:21.358Z,14.80
2018-07-22T08:46:48.953Z,14.03
2018-07-22T08:49:16.590Z,13.67
2018-07-22T08:51:44.253Z,14.73
2018-07-22T08:54:13.464Z,14.23
2018-07-22T08:56:41.151Z,16.27
2018-07-22T08:59:08.745Z,14.17
2018-07-22T09:01:36.377Z,14.10
2018-07-22T09:04:04.110Z,14.60
2018-07-22T09:06:32.733Z,17.27
2018-07-22T09:09:00.309Z,15.70
2018-07-22T09:11:27.961Z,14.97
2018-07-22T09:13:56.017Z,14.07
2018-07-22T09:16:24.669Z,12.67
2018-07-22T09:18:52.320Z,14.83
2018-07-22T09:21:20.166Z,13.30
2018-07-22T09:23:47.763Z,13.70
2018-07-22T09:26:15.351Z,12.77
2018-07-22T09:28:42.909Z,12.47
2018-07-22T09:31:10.518Z,13.30
2018-07-22T09:33:38.097Z,13.70
2018-07-22T09:36:05.898Z,12.33
2018-07-22T09:38:34.255Z,13.30
2018-07-22T09:41:01.854Z,12.60
2018-07-22T09:43:29.425Z,12.90
2018-07-22T09:45:57.037Z,12.60
2018-07-22T09:48:25.096Z,12.90
2018-07-22T09:50:52.686Z,14.60
2018-07-22T09:53:20.275Z,12.27
2018-07-22T09:55:48.445Z,13.30
2018-07-22T09:58:16.018Z,12.90
2018-07-22T10:00:49.441Z,12.10
2018-07-22T10:03:17.115Z,14.40
2018-07-22T10:05:45.753Z,13.30
2018-07-22T10:08:13.338Z,14.30
2018-07-22T10:10:41.002Z,11.80
2018-07-22T10:13:09.283Z,14.47
2018-07-22T10:15:36.908Z,13.13
2018-07-22T10:18:04.594Z,12.13
2018-07-22T10:20:32.238Z,14.20
2018-07-22T10:22:59.812Z,17.10
2018-07-22T10:25:27.388Z,14.03
2018-07-22T10:27:56.141Z,15.00
2018-07-22T10:30:23.780Z,14.20
2018-07-22T10:32:51.342Z,16.20
2018-07-22T10:35:19.040Z,15.60
2018-07-22T10:37:46.660Z,15.60
2018-07-22T10:40:14.737Z,16.53
2018-07-22T10:42:42.424Z,15.87
2018-07-22T10:45:10.045Z,16.57
2018-07-22T10:47:38.268Z,16.70
2018-07-22T10:50:05.986Z,15.03
2018-07-22T10:52:33.605Z,17.00
2018-07-22T10:55:01.170Z,18.07
2018-07-22T10:57:28.788Z,19.03
2018-07-22T10:59:56.365Z,18.13
2018-07-22T11:02:24.048Z,18.63
2018-07-22T11:04:51.612Z,17.83
2018-07-22T11:07:19.574Z,15.00
2018-07-22T11:09:47.149Z,18.40
2018-07-22T11:12:14.740Z,19.13
2018-07-22T11:14:42.315Z,17.47
2018-07-22T11:17:10.188Z,18.83
2018-07-22T11:19:37.773Z,18.93
2018-07-22T11:22:05.577Z,20.00
2018-07-22T11:24:33.143Z,17.53
2018-07-22T11:27:00.764Z,19.30
2018-07-22T11:29:28.371Z,19.30
2018-07-22T11:31:55.961Z,19.00
2018-07-22T11:34:23.556Z,19.63
2018-07-22T11:36:51.153Z,19.80
2018-07-22T11:39:18.725Z,18.57
2018-07-22T11:41:46.383Z,19.50
2018-07-22T11:44:13.993Z,20.20
2018-07-22T11:46:41.641Z,19.50
2018-07-22T11:49:09.555Z,21.07
2018-07-22T11:51:37.894Z,18.70
2018-07-22T11:54:05.729Z,17.03
2018-07-22T11:56:33.370Z,17.27
2018-07-22T11:59:00.924Z,14.90
2018-07-22T12:01:28.589Z,14.43
2018-07-22T12:03:56.164Z,16.10
2018-07-22T12:06:23.829Z,14.70
2018-07-22T12:08:51.393Z,13.50
2018-07-22T12:11:19.061Z,13.37
2018-07-22T12:13:46.660Z,13.60
2018-07-22T12:16:14.249Z,13.03
2018-07-22T12:18:41.828Z,11.17
2018-07-22T12:21:09.466Z,14.87
2018-07-22T12:23:37.047Z,12.07
2018-07-22T12:26:04.665Z,12.70
2018-07-22T12:28:32.227Z,11.73
2018-07-22T12:30:59.817Z,16.07
2018-07-22T12:33:27.409Z,11.60
2018-07-22T12:35:55.022Z,8.63
2018-07-22T12:38:22.596Z,8.57
2018-07-22T12:40:50.169Z,6.80
2018-07-22T12:43:17.767Z,4.50
2018-07-22T12:45:45.364Z,5.70
2018-07-22T12:48:12.958Z,5.37
2018-07-22T12:50:40.582Z,5.53
2018-07-22T12:53:08.713Z,8.53
2018-07-22T12:55:36.357Z,6.10
2018-07-22T12:58:03.974Z,7.70
2018-07-22T13:00:31.538Z,9.53
2018-07-22T13:02:59.132Z,9.97
2018-07-22T13:05:26.816Z,8.50
2018-07-22T13:07:54.521Z,10.60
2018-07-22T13:10:22.097Z,10.50
2018-07-22T13:12:50.686Z,10.50
2018-07-22T13:15:18.272Z,11.43
2018-07-22T13:17:45.906Z,6.90
2018-07-22T13:20:13.521Z,9.47
2018-07-22T13:22:41.210Z,8.60
2018-07-22T13:25:08.848Z,8.40
2018-07-22T13:27:36.454Z,8.60
2018-07-22T13:30:05.248Z,8.90
2018-07-22T13:32:32.849Z,9.23
2018-07-22T13:35:00.438Z,7.47
2018-07-22T13:37:28.977Z,7.00
2018-07-22T13:39:56.565Z,6.83
2018-07-22T13:42:24.317Z,6.00
2018-07-22T13:44:51.926Z,7.60
2018-07-22T13:47:19.537Z,7.27
2018-07-22T13:49:47.125Z,7.27
2018-07-22T13:52:14.633Z,6.80
2018-07-22T13:54:42.196Z,9.77
2018-07-22T13:57:09.777Z,10.60
2018-07-22T13:59:37.348Z,7.50
2018-07-22T14:02:05.260Z,9.90
2018-07-22T14:04:32.873Z,7.57
2018-07-22T14:07:00.473Z,7.17
2018-07-22T14:09:28.073Z,8.30
2018-07-22T14:11:56.789Z,8.47
2018-07-22T14:14:24.376Z,10.70
2018-07-22T14:16:52.097Z,8.57
2018-07-22T14:19:19.697Z,9.53
2018-07-22T14:21:47.305Z,11.73
2018-07-22T14:24:15.889Z,10.80
2018-07-22T14:26:43.493Z,9.63
2018-07-22T14:29:12.056Z,10.00
2018-07-22T14:31:39.825Z,9.70
2018-07-22T14:34:07.421Z,9.30
2018-07-22T14:36:35.177Z,8.13
2018-07-22T14:39:03.505Z,9.53
2018-07-22T14:41:31.232Z,10.20
2018-07-22T14:43:58.833Z,11.33
2018-07-22T14:46:27.125Z,11.50
2018-07-22T14:48:54.781Z,11.67
2018-07-22T14:51:22.725Z,10.53
2018-07-22T14:53:50.304Z,10.67
2018-07-22T14:56:18.905Z,12.03
2018-07-22T14:58:46.584Z,13.13
2018-07-22T15:01:14.184Z,11.57
2018-07-22T15:03:43.693Z,13.70
2018-07-22T15:06:11.873Z,14.23
2018-07-22T15:08:39.752Z,14.03
2018-07-22T15:11:07.341Z,16.17
2018-07-22T15:13:35.047Z,15.50
2018-07-22T15:16:02.628Z,15.60
2018-07-22T15:18:30.281Z,18.77
2018-07-22T15:20:57.863Z,26.73
2018-07-22T15:23:25.517Z,20.63
2018-07-22T15:25:53.131Z,18.00
2018-07-22T15:28:21.376Z,17.00
2018-07-22T15:30:48.965Z,17.30
2018-07-22T15:33:16.565Z,16.70
2018-07-22T15:35:44.137Z,15.43
2018-07-22T15:38:11.933Z,19.23
2018-07-22T15:40:42.402Z,15.87
2018-07-22T15:43:10.054Z,15.73
2018-07-22T15:45:38.396Z,16.13
2018-07-22T15:48:06.105Z,14.60
2018-07-22T15:50:34.689Z,12.60
2018-07-22T15:53:02.294Z,13.23
2018-07-22T15:55:29.979Z,12.83
2018-07-22T15:57:57.501Z,12.23
2018-07-22T16:00:25.136Z,10.73
2018-07-22T16:02:52.725Z,10.43
2018-07-22T16:05:20.310Z,10.03
2018-07-22T16:07:48.258Z,10.83
2018-07-22T16:10:15.992Z,11.47
2018-07-22T16:12:43.744Z,9.43
2018-07-22T16:15:11.341Z,10.03
2018-07-22T16:17:38.925Z,12.90
2018-07-22T16:20:06.513Z,10.37
2018-07-22T16:22:34.118Z,9.57
2018-07-22T16:25:01.807Z,9.57
2018-07-22T16:27:29.647Z,9.17
2018-07-22T16:29:57.466Z,9.63
2018-07-22T16:32:25.197Z,9.00
2018-07-22T16:34:52.805Z,10.70
2018-07-22T16:37:20.397Z,10.17
2018-07-22T16:39:47.961Z,9.50
2018-07-22T16:42:15.590Z,9.87
2018-07-22T16:44:43.204Z,11.50
2018-07-22T16:47:10.997Z,10.70
2018-07-22T16:49:38.488Z,10.50
2018-07-22T16:52:06.093Z,9.10
2018-07-22T16:54:34.646Z,11.00
2018-07-22T16:57:02.251Z,11.23
2018-07-22T16:59:29.831Z,11.70
2018-07-22T17:01:57.417Z,11.47
2018-07-22T17:04:25.028Z,11.40
2018-07-22T17:06:52.743Z,11.30
2018-07-22T17:09:20.314Z,12.07
2018-07-22T17:11:47.893Z,10.40
2018-07-22T17:14:16.089Z,11.33
2018-07-22T17:16:43.693Z,11.93
2018-07-22T17:19:11.270Z,10.67
2018-07-22T17:21:38.894Z,12.27
2018-07-22T17:24:06.813Z,11.03
2018-07-22T17:26:34.464Z,10.83
2018-07-22T17:29:02.036Z,11.67
2018-07-22T17:31:29.629Z,11.20
2018-07-22T17:33:57.224Z,10.70
2018-07-22T17:36:25.045Z,11.33
2018-07-22T17:38:52.659Z,12.60
2018-07-22T17:41:20.295Z,12.50
2018-07-22T17:43:48.449Z,11.90
2018-07-22T17:46:16.148Z,11.10
2018-07-22T17:48:43.733Z,13.20
2018-07-22T17:51:11.339Z,11.40
2018-07-22T17:53:38.965Z,12.83
2018-07-22T17:56:06.537Z,14.47
2018-07-22T17:58:34.120Z,15.80
2018-07-22T18:01:01.713Z,15.37
2018-07-22T18:03:30.625Z,14.77
2018-07-22T18:05:58.416Z,14.83
2018-07-22T18:08:26.068Z,14.90
2018-07-22T18:10:54.102Z,14.90
2018-07-22T18:13:21.700Z,14.37
2018-07-22T18:15:49.485Z,16.93
2018-07-22T18:18:17.153Z,14.97
2018-07-22T18:20:46.713Z,14.60
2018-07-22T18:23:14.365Z,16.90
2018-07-22T18:25:42.956Z,16.87
2018-07-22T18:28:10.821Z,17.60
2018-07-22T18:30:38.404Z,16.93
2018-07-22T18:33:06.064Z,16.23
2018-07-22T18:35:33.664Z,18.90
2018-07-22T18:38:01.335Z,15.77
2018-07-22T18:40:29.921Z,16.17
2018-07-22T18:42:57.508Z,17.47
2018-07-22T18:45:25.236Z,15.47
2018-07-22T18:47:53.245Z,15.50
2018-07-22T18:50:20.841Z,16.00
2018-07-22T18:52:48.699Z,17.90
2018-07-22T18:55:16.221Z,21.53
2018-07-22T18:57:43.809Z,17.87
2018-07-22T19:00:11.419Z,15.70
2018-07-22T19:02:39.076Z,16.63
2018-07-22T19:05:06.844Z,16.53
2018-07-22T19:07:34.429Z,16.97
2018-07-22T19:10:02.104Z,15.10
2018-07-22T19:12:29.686Z,14.20
2018-07-22T19:14:57.253Z,20.70
2018-07-22T19:17:24.873Z,15.33
2018-07-22T19:19:52.432Z,15.77
2018-07-22T19:22:20.053Z,15.00
2018-07-22T19:24:47.695Z,14.50
2018-07-22T19:27:15.497Z,13.77
2018-07-22T19:29:43.081Z,13.10
2018-07-22T19:32:10.683Z,14.20
2018-07-22T19:34:38.293Z,14.10
2018-07-22T19:37:06.054Z,15.50
2018-07-22T19:39:34.470Z,14.23
2018-07-22T19:42:02.133Z,11.90
2018-07-22T19:44:29.732Z,14.57
2018-07-22T19:46:57.358Z,13.27
2018-07-22T19:49:25.024Z,14.27
2018-07-22T19:51:52.777Z,13.17
2018-07-22T19:54:20.385Z,12.23
2018-07-22T19:56:47.988Z,13.47
2018-07-22T19:59:15.601Z,13.07
2018-07-22T20:01:43.301Z,12.67
2018-07-22T20:04:13.114Z,14.00
2018-07-22T20:06:41.589Z,15.47
2018-07-22T20:09:10.529Z,14.00
2018-07-22T20:11:38.265Z,14.43
2018-07-22T20:14:06.836Z,13.23
2018-07-22T20:16:34.746Z,13.73
2018-07-22T20:19:02.324Z,13.27
2018-07-22T20:21:31.334Z,13.90
2018-07-22T20:23:59.031Z,12.73
2018-07-22T20:26:26.605Z,13.60
2018-07-22T20:28:54.345Z,14.30
2018-07-22T20:31:21.968Z,15.00
2018-07-22T20:33:49.560Z,13.63
2018-07-22T20:36:17.145Z,14.27
2018-07-22T20:38:45.658Z,19.50
2018-07-22T20:41:13.278Z,16.10
2018-07-22T20:43:40.877Z,16.07
2018-07-22T20:46:08.465Z,20.20
2018-07-22T20:48:36.075Z,16.73
2018-07-22T20:51:03.704Z,17.57
2018-07-22T20:53:31.296Z,15.97
2018-07-22T20:55:59.346Z,22.43
2018-07-22T20:58:28.448Z,17.47
2018-07-22T21:00:56.300Z,16.43
2018-07-22T21:03:23.901Z,19.90
2018-07-22T21:05:51.466Z,15.40
2018-07-22T21:08:19.061Z,14.97
2018-07-22T21:10:47.649Z,14.37
2018-07-22T21:13:20.012Z,14.90
2018-07-22T21:15:47.804Z,16.67
2018-07-22T21:18:15.424Z,17.17
2018-07-22T21:20:43.033Z,16.27
2018-07-22T21:23:10.648Z,14.53
2018-07-22T21:25:38.249Z,16.53
2018-07-22T21:28:05.928Z,16.73
2018-07-22T21:30:33.505Z,17.57
2018-07-22T21:33:01.141Z,19.17
2018-07-22T21:35:29.824Z,15.37
2018-07-22T21:37:57.440Z,16.23
2018-07-22T21:40:25.225Z,17.90
2018-07-22T21:42:52.804Z,16.47
2018-07-22T21:45:20.708Z,18.67
2018-07-22T21:47:48.301Z,16.30
2018-07-22T21:50:15.879Z,16.37
2018-07-22T21:52:43.570Z,15.73
2018-07-22T21:55:11.164Z,16.20
2018-07-22T21:57:38.665Z,18.60
2018-07-22T22:00:31.474Z,15.00
2018-07-22T22:03:00.329Z,18.90
2018-07-22T22:05:27.942Z,15.67
2018-07-22T22:07:56.364Z,13.80
2018-07-22T22:10:24.455Z,16.73
2018-07-22T22:12:52.225Z,19.93
2018-07-22T22:15:23.751Z,15.27
2018-07-22T22:17:51.877Z,17.50
2018-07-22T22:20:19.581Z,16.10
2018-07-22T22:22:47.321Z,18.60
2018-07-22T22:25:14.897Z,15.60
2018-07-22T22:27:42.493Z,17.80
2018-07-22T22:30:10.949Z,21.13
2018-07-22T22:32:38.570Z,18.47
2018-07-22T22:35:07.301Z,20.40
2018-07-22T22:37:34.929Z,19.73
2018-07-22T22:40:02.637Z,19.90
2018-07-22T22:42:30.241Z,16.97
2018-07-22T22:44:57.841Z,18.17
2018-07-22T22:47:25.424Z,19.90
2018-07-22T22:49:53.013Z,19.07
2018-07-22T22:52:21.945Z,19.90
2018-07-22T22:54:49.921Z,16.93
2018-07-22T22:57:17.522Z,17.10
2018-07-22T22:59:45.008Z,18.27
2018-07-22T23:02:12.739Z,18.80
2018-07-22T23:04:40.297Z,18.73
2018-07-22T23:07:07.917Z,17.20
2018-07-22T23:09:35.495Z,16.40
2018-07-22T23:12:03.158Z,18.10
2018-07-22T23:14:30.737Z,18.63
2018-07-22T23:16:58.332Z,19.60
2018-07-22T23:19:25.988Z,16.70
2018-07-22T23:21:53.498Z,16.93
2018-07-22T23:24:21.986Z,18.37
2018-07-22T23:26:50.569Z,17.87
2018-07-22T23:29:18.144Z,19.43
2018-07-22T23:31:45.739Z,23.87
2018-07-22T23:34:13.329Z,17.30
2018-07-22T23:36:40.937Z,17.20
2018-07-22T23:39:09.074Z,20.10
2018-07-22T23:41:36.675Z,17.53
2018-07-22T23:44:04.257Z,15.80
2018-07-22T23:46:31.840Z,16.73
2018-07-22T23:48:59.405Z,16.43
2018-07-22T23:51:27.012Z,17.53
2018-07-22T23:53:54.624Z,15.43
2018-07-22T23:56:22.209Z,15.70
2018-07-22T23:58:49.784Z,17.60
